This is the latest recevied weather packets stored in our database for station/object IU3OVK-13. If no packets are shown the sender has not sent any weather packets the latest 10 day(s).
| Time | Temp. | Humidity | Pressure | Rain* | Wind** | Luminosity | Snow |
|---|---|---|---|---|---|---|---|
| 1777702655 | 26.11° C | 86% | 1009.6 hPa | - | - | - | - |
| 1777670678 | 11.67° C | 99% | 1020.9 hPa | - | - | - | - |
| 1777670059 | 11.67° C | 99% | 1021.1 hPa | - | - | - | - |
| 1777669438 | 11.67° C | 99% | 1020.8 hPa | - | - | - | - |
| 1777668818 | 11.67° C | 99% | 1021.2 hPa | - | - | - | - |
| 1777668197 | 12.22° C | 99% | 1020.6 hPa | - | - | - | - |
| 1777667578 | 12.78° C | 99% | 1020.3 hPa | - | - | - | - |
| 1777666957 | 12.78° C | 99% | 1020.3 hPa | - | - | - | - |
| 1777666337 | 13.33° C | 99% | 1020.3 hPa | - | - | - | - |
| 1777665717 | 13.33° C | 99% | 1020.3 hPa | - | - | - | - |
| 1777665097 | 13.89° C | 99% | 1019.7 hPa | - | - | - | - |
| 1777664476 | 13.89° C | 99% | 1020.2 hPa | - | - | - | - |
| 1777663856 | 14.44° C | 99% | 1020.1 hPa | - | - | - | - |
| 1777663236 | 14.44° C | 99% | 1020 hPa | - | - | - | - |
| 1777662616 | 14.44° C | 94% | 1019.4 hPa | - | - | - | - |
| 1777661996 | 15° C | 85% | 1019.1 hPa | - | - | - | - |
| 1777661376 | 15.56° C | 79% | 1018.9 hPa | - | - | - | - |
| 1777660757 | 15.56° C | 78% | 1018.7 hPa | - | - | - | - |
| 1777658275 | 16.67° C | 75% | 1017.8 hPa | - | - | - | - |
| 1777657655 | 17.22° C | 75% | 1017.6 hPa | - | - | - | - |
| 1777657035 | 17.78° C | 73% | 1017.5 hPa | - | - | - | - |
| 1777655794 | 18.33° C | 71% | 1017.2 hPa | - | - | - | - |
| 1777655174 | 18.33° C | 71% | 1017.2 hPa | - | - | - | - |
| 1777653934 | 18.89° C | 71% | 1017.1 hPa | - | - | - | - |
| 1777653314 | 19.44° C | 72% | 1017.1 hPa | - | - | - | - |
* Rain since midnight (hover to see other rain measurements)
** Current wind speed in m/s (hover to see current wind gust speed)